Time;durP1;ratioP1;P1;durP2;ratioP2;P2;SDS_P1;SDS_P2;PMS_P1;PMS_P2;Temp;Humidity;BMP_temperature;BMP_pressure;BME280_temperature;BME280_humidity;BME280_pressure;Samples;Min_cycle;Max_cycle;Signal;HPM_P1;HPM_P2
2023/06/23 00:01:49;;;;;;;4.05;1.83;;;;;;;23.88;100.00;96179.91;5080177;27;20024;-80
2023/06/23 00:04:14;;;;;;;2.63;1.30;;;;;;;23.68;100.00;96175.03;5109896;28;20431;-80
2023/06/23 00:06:40;;;;;;;1.70;1.10;;;;;;;23.87;100.00;96172.88;5115632;28;20028;-80
2023/06/23 00:09:13;;;;;;;2.75;1.42;;;;;;;23.87;100.00;96184.44;5115865;28;20103;-79
2023/06/23 00:11:46;;;;;;;;;;;;;;;23.81;100.00;96180.06;5089506;28;20481;-80
2023/06/23 00:14:12;;;;;;;1.93;1.23;;;;;;;23.96;100.00;96171.44;5092686;28;19911;-80
2023/06/23 00:16:39;;;;;;;2.47;1.30;;;;;;;24.16;100.00;96165.53;5111688;28;20710;-80
2023/06/23 00:19:04;;;;;;;2.38;1.30;;;;;;;24.11;100.00;96168.13;5084567;28;20049;-80
2023/06/23 00:21:30;;;;;;;2.00;1.20;;;;;;;24.43;100.00;96173.75;5099652;28;20015;-80
2023/06/23 00:23:55;;;;;;;4.05;1.60;;;;;;;23.85;100.00;96178.50;5103834;28;20028;-80
2023/06/23 00:26:23;;;;;;;2.80;1.27;;;;;;;23.70;100.00;96187.13;5105113;27;20035;-80
2023/06/23 00:28:58;;;;;;;3.28;1.70;;;;;;;23.80;100.00;96188.34;5098741;28;20423;-80
2023/06/23 00:31:24;;;;;;;2.53;1.38;;;;;;;23.82;100.00;96180.88;5111231;28;20027;-80
2023/06/23 00:33:49;;;;;;;3.83;1.58;;;;;;;24.01;100.00;96184.94;5080662;28;20389;-80
2023/06/23 00:36:15;;;;;;;2.78;1.58;;;;;;;23.62;100.00;96187.50;5123254;27;20443;-80
2023/06/23 00:38:40;;;;;;;2.85;1.55;;;;;;;23.51;100.00;96180.34;5086070;28;20384;-80
2023/06/23 00:41:06;;;;;;;4.95;2.08;;;;;;;23.87;100.00;96189.00;5080334;28;20027;-80
2023/06/23 00:43:50;;;;;;;3.03;1.58;;;;;;;23.74;100.00;96200.88;5113943;28;20031;-80
2023/06/23 00:46:21;;;;;;;2.90;1.60;;;;;;;23.78;100.00;96193.97;5085323;28;20024;-80
2023/06/23 00:48:48;;;;;;;4.15;1.67;;;;;;;23.86;100.00;96201.63;5072154;28;20019;-80
2023/06/23 00:51:16;;;;;;;3.22;1.30;;;;;;;24.03;100.00;96206.19;5084175;28;20049;-80
2023/06/23 00:53:46;;;;;;;2.65;1.45;;;;;;;23.72;100.00;96203.81;5099087;28;20039;-79
2023/06/23 00:56:17;;;;;;;6.78;1.77;;;;;;;23.50;100.00;96200.97;5089163;27;20052;-80
2023/06/23 00:58:45;;;;;;;5.78;1.90;;;;;;;23.74;100.00;96201.72;5103560;28;20019;-80
2023/06/23 01:01:26;;;;;;;5.30;2.08;;;;;;;23.52;100.00;96192.69;5106009;28;20020;-80
2023/06/23 01:03:51;;;;;;;4.32;1.80;;;;;;;23.38;100.00;96191.38;5087521;28;20473;-80
2023/06/23 01:06:27;;;;;;;2.47;1.60;;;;;;;23.60;100.00;96186.09;5092677;28;20035;-80
2023/06/23 01:12:26;;;;;;;3.85;1.70;;;;;;;23.49;100.00;96187.81;5120212;27;20084;-79
2023/06/23 01:15:05;;;;;;;3.35;1.65;;;;;;;23.32;100.00;96195.84;5081913;28;20393;-81
2023/06/23 01:17:39;;;;;;;4.65;1.55;;;;;;;23.44;100.00;96201.13;5079151;28;20477;-79
2023/06/23 01:20:21;;;;;;;3.30;1.70;;;;;;;23.55;100.00;96196.78;5096303;28;20098;-80
2023/06/23 01:22:46;;;;;;;4.70;1.77;;;;;;;23.50;100.00;96197.47;5088680;28;20031;-80
2023/06/23 01:25:50;;;;;;;3.60;1.75;;;;;;;23.19;100.00;96201.50;5093233;28;20719;-79
2023/06/23 01:28:43;;;;;;;3.17;1.42;;;;;;;23.39;100.00;96199.19;5100760;27;20034;-79
2023/06/23 01:31:13;;;;;;;3.03;1.60;;;;;;;23.16;100.00;96205.47;5074410;28;20051;-79
2023/06/23 01:33:48;;;;;;;4.60;2.03;;;;;;;22.96;100.00;96195.16;5076789;28;20035;-80
2023/06/23 01:36:36;;;;;;;3.17;1.95;;;;;;;23.02;100.00;96196.06;5106160;28;20452;-80
2023/06/23 01:39:06;;;;;;;4.32;1.80;;;;;;;23.32;100.00;96198.50;5096196;28;20023;-79
2023/06/23 01:41:38;;;;;;;4.00;1.95;;;;;;;22.82;100.00;96207.19;5101638;28;20020;-80
2023/06/23 01:44:08;;;;;;;3.78;2.03;;;;;;;23.27;100.00;96206.47;5086704;28;20115;-80
2023/06/23 01:46:36;;;;;;;4.38;2.00;;;;;;;23.25;100.00;96209.41;5084604;28;20027;-80
2023/06/23 01:49:13;;;;;;;4.90;1.98;;;;;;;23.06;100.00;96216.00;5078898;28;20428;-79
2023/06/23 01:51:44;;;;;;;3.40;1.83;;;;;;;22.65;100.00;96214.31;5098087;28;20024;-79
2023/06/23 01:54:12;;;;;;;3.83;1.98;;;;;;;22.42;100.00;96215.16;5102315;28;20031;-81
2023/06/23 01:56:40;;;;;;;3.55;1.95;;;;;;;22.38;100.00;96206.78;5112884;27;20031;-79
2023/06/23 01:59:10;;;;;;;6.05;2.33;;;;;;;22.27;100.00;96205.75;5091168;28;20080;-80
2023/06/23 02:01:55;;;;;;;4.22;2.38;;;;;;;22.71;100.00;96203.47;5074437;28;20027;-80
2023/06/23 02:04:22;;;;;;;3.13;2.15;;;;;;;22.39;100.00;96215.63;5092446;28;20020;-80
2023/06/23 02:06:50;;;;;;;4.10;2.10;;;;;;;22.42;100.00;96212.50;5105497;27;20480;-80
2023/06/23 02:09:25;;;;;;;3.40;1.80;;;;;;;22.04;100.00;96213.75;5099895;28;20389;-80
2023/06/23 02:11:52;;;;;;;4.15;2.40;;;;;;;22.76;100.00;96200.06;5093987;28;20076;-80
2023/06/23 02:14:20;;;;;;;3.65;2.28;;;;;;;22.78;100.00;96193.44;5078454;28;20020;-80
2023/06/23 02:16:56;;;;;;;4.38;2.42;;;;;;;22.66;100.00;96198.00;5095625;28;20039;-80
2023/06/23 02:19:23;;;;;;;5.85;2.45;;;;;;;22.64;100.00;96204.66;5093076;27;20047;-79
2023/06/23 02:21:59;;;;;;;8.27;2.30;;;;;;;22.56;100.00;96211.19;5107149;27;20400;-79
2023/06/23 02:24:26;;;;;;;3.50;2.30;;;;;;;22.46;100.00;96221.69;5098711;28;20026;-79
2023/06/23 02:26:53;;;;;;;5.32;2.70;;;;;;;22.65;100.00;96220.50;5081618;27;20027;-79
2023/06/23 02:29:21;;;;;;;4.55;3.15;;;;;;;22.29;100.00;96227.75;5091207;28;20382;-79
2023/06/23 02:31:47;;;;;;;4.72;2.85;;;;;;;22.54;100.00;96229.38;5113718;27;20016;-79
2023/06/23 02:34:15;;;;;;;4.75;2.65;;;;;;;22.55;100.00;96226.44;5112705;28;20039;-79
2023/06/23 02:36:50;;;;;;;3.47;2.28;;;;;;;22.19;100.00;96232.88;5077276;28;20020;-80
2023/06/23 02:39:37;;;;;;;4.65;2.38;;;;;;;21.99;100.00;96238.53;5077768;28;20024;-80
2023/06/23 02:42:05;;;;;;;5.15;2.78;;;;;;;22.44;100.00;96242.56;5077632;28;20065;-80
2023/06/23 02:44:37;;;;;;;4.10;2.58;;;;;;;21.84;100.00;96243.53;5090808;28;20019;-79
2023/06/23 02:47:15;;;;;;;4.57;3.00;;;;;;;21.85;100.00;96248.63;5072393;28;20072;-79
2023/06/23 02:49:42;;;;;;;5.80;3.45;;;;;;;21.71;100.00;96259.78;5075723;27;20015;-79
2023/06/23 02:52:10;;;;;;;5.25;3.67;;;;;;;21.60;100.00;96261.38;5077056;28;20391;-79
2023/06/23 02:54:46;;;;;;;5.30;3.70;;;;;;;21.22;100.00;96267.81;5092412;28;20015;-79
2023/06/23 02:57:14;;;;;;;5.95;4.10;;;;;;;21.24;100.00;96263.06;5078831;28;20038;-79
2023/06/23 02:59:42;;;;;;;5.43;3.58;;;;;;;21.35;100.00;96267.69;5086098;28;20031;-79
2023/06/23 03:02:15;;;;;;;6.35;4.68;;;;;;;21.36;100.00;96266.66;5112400;28;20025;-79
2023/06/23 03:04:41;;;;;;;7.38;4.70;;;;;;;21.42;100.00;96280.97;5085470;28;20034;-79
2023/06/23 03:07:10;;;;;;;6.63;4.65;;;;;;;21.76;100.00;96274.09;5108766;28;20019;-79
2023/06/23 03:09:36;;;;;;;7.85;5.03;;;;;;;21.40;100.00;96278.53;5099163;28;20092;-79
2023/06/23 03:12:02;;;;;;;7.10;4.82;;;;;;;21.52;100.00;96278.56;5111431;28;20031;-80
2023/06/23 03:14:28;;;;;;;7.43;4.65;;;;;;;21.56;100.00;96287.78;5086193;28;20019;-79
2023/06/23 03:17:08;;;;;;;6.60;4.60;;;;;;;21.51;100.00;96290.31;5077934;28;20032;-79
2023/06/23 03:19:42;;;;;;;7.80;5.38;;;;;;;21.45;100.00;96285.06;5082537;28;20016;-79
2023/06/23 03:22:17;;;;;;;7.85;5.60;;;;;;;21.53;100.00;96288.25;5120532;27;20103;-80
2023/06/23 03:24:47;;;;;;;8.20;5.85;;;;;;;21.23;100.00;96298.88;5078271;28;20020;-79
2023/06/23 03:27:14;;;;;;;8.20;5.93;;;;;;;21.30;100.00;96307.66;5095253;28;20027;-79
2023/06/23 03:30:07;;;;;;;9.02;5.93;;;;;;;21.33;100.00;96307.19;5085840;28;20030;-79
2023/06/23 03:32:38;;;;;;;7.50;4.95;;;;;;;21.12;100.00;96321.00;5085535;28;20063;-79
2023/06/23 03:35:10;;;;;;;6.97;4.70;;;;;;;21.58;100.00;96327.69;5078437;28;20023;-79
2023/06/23 03:37:42;;;;;;;5.90;4.05;;;;;;;21.03;100.00;96327.72;5089913;28;20032;-79
2023/06/23 03:40:23;;;;;;;6.30;4.30;;;;;;;20.99;100.00;96329.19;5116853;28;20408;-80
2023/06/23 03:43:02;;;;;;;6.70;4.60;;;;;;;21.11;100.00;96333.56;5116800;28;20034;-80
2023/06/23 03:45:30;;;;;;;7.80;4.28;;;;;;;20.94;100.00;96346.72;5083651;28;20027;-80
2023/06/23 03:48:02;;;;;;;5.97;4.20;;;;;;;20.87;100.00;96337.13;5081324;28;20121;-80
2023/06/23 03:50:32;;;;;;;6.57;4.50;;;;;;;20.88;100.00;96338.75;5105534;27;20080;-80
2023/06/23 03:53:01;;;;;;;6.93;4.82;;;;;;;21.11;100.00;96351.47;5077130;28;20031;-81
2023/06/23 03:55:29;;;;;;;8.32;4.93;;;;;;;20.82;100.00;96355.69;5106760;27;20093;-80
2023/06/23 03:57:59;;;;;;;7.32;5.32;;;;;;;21.39;100.00;96354.50;5101739;28;20464;-80
2023/06/23 04:00:25;;;;;;;8.43;5.72;;;;;;;21.33;100.00;96357.22;5096641;27;20834;-80
2023/06/23 04:02:56;;;;;;;8.38;5.80;;;;;;;21.12;100.00;96361.13;5082705;28;20102;-80
2023/06/23 04:05:26;;;;;;;7.53;5.17;;;;;;;21.40;100.00;96366.81;5083237;28;20409;-80
2023/06/23 04:07:53;;;;;;;9.65;5.43;;;;;;;21.29;100.00;96361.34;5094101;28;20027;-80
2023/06/23 04:10:20;;;;;;;8.93;6.22;;;;;;;21.91;100.00;96366.59;5081836;28;20434;-79
2023/06/23 04:12:47;;;;;;;9.73;6.60;;;;;;;21.56;100.00;96364.56;5088069;28;20080;-79
2023/06/23 04:15:15;;;;;;;8.68;6.47;;;;;;;21.78;100.00;96371.06;5079493;28;20022;-80
2023/06/23 04:17:43;;;;;;;9.70;6.57;;;;;;;21.41;100.00;96371.13;5097511;28;20594;-77
2023/06/23 04:20:12;;;;;;;8.80;6.38;;;;;;;21.22;100.00;96366.78;5104622;27;20133;-77
2023/06/23 04:22:40;;;;;;;8.85;6.20;;;;;;;21.35;100.00;96384.56;5106460;28;20103;-77
2023/06/23 04:25:18;;;;;;;8.85;6.75;;;;;;;21.65;100.00;96372.06;5083197;28;20065;-76
2023/06/23 04:27:45;;;;;;;8.50;6.57;;;;;;;21.00;100.00;96381.63;5099914;27;20098;-77
2023/06/23 04:30:13;;;;;;;8.55;6.97;;;;;;;21.01;100.00;96385.94;5096351;28;20036;-78
2023/06/23 04:32:40;;;;;;;9.85;8.50;;;;;;;21.14;100.00;96383.94;5078819;28;20028;-79
2023/06/23 04:35:06;;;;;;;10.38;7.60;;;;;;;21.35;100.00;96382.72;5080530;28;20027;-79
2023/06/23 04:37:42;;;;;;;10.98;8.38;;;;;;;20.95;100.00;96382.28;5091399;28;20493;-79
2023/06/23 04:40:17;;;;;;;11.52;8.57;;;;;;;21.18;100.00;96381.63;5092274;28;20421;-79
2023/06/23 04:42:50;;;;;;;12.10;9.35;;;;;;;21.07;100.00;96374.38;5082545;28;20031;-79
2023/06/23 04:45:21;;;;;;;13.50;10.82;;;;;;;20.97;100.00;96374.06;5102345;28;20023;-79
2023/06/23 04:47:54;;;;;;;10.73;8.85;;;;;;;21.23;100.00;96379.13;5102265;28;20035;-79
2023/06/23 04:50:23;;;;;;;12.52;10.60;;;;;;;21.37;100.00;96379.81;5100983;28;20024;-79
2023/06/23 04:52:53;;;;;;;13.38;10.68;;;;;;;21.46;100.00;96385.66;5101563;28;20024;-79
2023/06/23 04:55:20;;;;;;;13.32;11.52;;;;;;;21.05;100.00;96403.97;5084348;28;20474;-79
2023/06/23 04:57:49;;;;;;;15.57;12.25;;;;;;;21.40;100.00;96406.94;5083810;28;20055;-79
2023/06/23 05:00:20;;;;;;;15.90;12.55;;;;;;;21.67;100.00;96406.63;5090950;28;20108;-79
2023/06/23 05:02:48;;;;;;;14.05;11.70;;;;;;;21.11;100.00;96405.78;5105318;28;20024;-80
2023/06/23 05:05:21;;;;;;;13.70;11.43;;;;;;;21.30;100.00;96406.63;5112368;28;20020;-79
2023/06/23 05:08:05;;;;;;;13.38;11.98;;;;;;;21.10;100.00;96406.00;5097181;27;20023;-79
2023/06/23 05:10:31;;;;;;;13.82;12.15;;;;;;;21.04;100.00;96413.06;5100926;27;20481;-78
2023/06/23 05:13:00;;;;;;;14.20;11.93;;;;;;;21.08;100.00;96410.75;5088580;27;20027;-79
2023/06/23 05:15:27;;;;;;;16.33;12.68;;;;;;;21.40;100.00;96414.97;5088560;27;20041;-79
2023/06/23 05:17:55;;;;;;;16.48;13.55;;;;;;;21.24;100.00;96420.88;5098102;28;20016;-79
2023/06/23 05:20:23;;;;;;;15.65;12.63;;;;;;;21.02;100.00;96420.47;5090429;27;20494;-79
2023/06/23 05:22:55;;;;;;;14.75;12.30;;;;;;;21.02;100.00;96422.31;5093801;28;20019;-79
2023/06/23 05:25:29;;;;;;;17.13;14.18;;;;;;;21.33;100.00;96419.56;5096424;27;20041;-81
2023/06/23 05:27:59;;;;;;;15.35;13.27;;;;;;;20.92;100.00;96420.16;5104980;27;20019;-82
2023/06/23 05:30:26;;;;;;;17.65;14.93;;;;;;;21.47;100.00;96422.09;5077393;27;20028;-81
2023/06/23 05:33:02;;;;;;;16.00;13.30;;;;;;;21.17;100.00;96430.81;5087848;28;20533;-82
2023/06/23 05:35:30;;;;;;;18.95;14.35;;;;;;;21.37;100.00;96431.47;5118701;27;20153;-81
2023/06/23 05:37:59;;;;;;;19.13;13.68;;;;;;;21.36;100.00;96427.16;5105085;28;20377;-81
2023/06/23 05:40:33;;;;;;;17.00;14.23;;;;;;;21.11;100.00;96431.72;5101981;27;20022;-79
2023/06/23 05:43:13;;;;;;;16.90;14.55;;;;;;;21.04;100.00;96438.97;5119834;27;20019;-81
2023/06/23 05:45:39;;;;;;;17.50;15.32;;;;;;;21.06;100.00;96452.94;5110915;28;20496;-82
2023/06/23 05:48:20;;;;;;;18.27;16.10;;;;;;;21.51;100.00;96444.69;5095785;28;20015;-83
2023/06/23 05:50:48;;;;;;;19.13;15.77;;;;;;;21.11;100.00;96450.44;5100255;27;20222;-82
2023/06/23 05:53:17;;;;;;;18.42;16.38;;;;;;;20.99;100.00;96454.84;5112628;27;20408;-82
2023/06/23 05:56:08;;;;;;;18.77;15.45;;;;;;;20.99;100.00;96462.88;5103511;28;20020;-82
2023/06/23 05:58:38;;;;;;;19.85;16.02;;;;;;;21.10;100.00;96449.59;5105526;27;20020;-81
2023/06/23 06:01:07;;;;;;;20.35;16.33;;;;;;;21.33;100.00;96448.97;5088234;28;20073;-82
2023/06/23 06:03:40;;;;;;;19.50;16.48;;;;;;;21.11;100.00;96455.78;5079853;27;20058;-82
2023/06/23 06:06:07;;;;;;;20.52;17.73;;;;;;;21.24;100.00;96462.84;5095710;28;20023;-81
2023/06/23 06:08:36;;;;;;;21.45;17.95;;;;;;;21.08;100.00;96459.69;5097807;28;20652;-81
2023/06/23 06:11:02;;;;;;;18.38;16.35;;;;;;;21.24;100.00;96457.50;5070227;27;20015;-82
2023/06/23 06:13:33;;;;;;;22.52;18.02;;;;;;;21.42;100.00;96473.59;5105338;27;20023;-81
2023/06/23 06:15:59;;;;;;;20.02;17.05;;;;;;;20.81;100.00;96464.47;5090759;27;20023;-82
2023/06/23 06:18:26;;;;;;;23.27;18.42;;;;;;;21.15;100.00;96464.97;5095359;28;20015;-81
2023/06/23 06:20:54;;;;;;;21.83;19.27;;;;;;;21.25;100.00;96464.47;5095835;28;20061;-81
2023/06/23 06:23:22;;;;;;;24.10;19.75;;;;;;;21.31;100.00;96471.63;5123968;27;20071;-81
2023/06/23 06:26:04;;;;;;;23.42;19.45;;;;;;;21.39;100.00;96479.38;5103426;28;20026;-82
2023/06/23 06:28:32;;;;;;;21.73;19.15;;;;;;;21.68;100.00;96488.56;5095592;28;20481;-82
2023/06/23 06:30:59;;;;;;;21.45;18.77;;;;;;;21.37;100.00;96492.19;5082562;27;20447;-82
2023/06/23 06:33:27;;;;;;;20.88;18.52;;;;;;;21.62;100.00;96489.44;5122991;27;20448;-82
2023/06/23 06:35:57;;;;;;;22.58;18.17;;;;;;;21.73;100.00;96501.25;5091363;27;20030;-81
2023/06/23 06:38:24;;;;;;;23.05;19.95;;;;;;;21.06;100.00;96501.06;5086306;28;20394;-83
2023/06/23 06:40:54;;;;;;;22.38;19.92;;;;;;;21.38;100.00;96516.03;5088497;27;20098;-82
2023/06/23 06:43:20;;;;;;;26.08;20.88;;;;;;;21.49;100.00;96513.66;5110728;27;20481;-81
2023/06/23 06:45:50;;;;;;;22.27;19.83;;;;;;;20.92;100.00;96524.41;5103456;27;20058;-82
2023/06/23 06:48:19;;;;;;;22.95;19.80;;;;;;;21.09;100.00;96516.66;5091280;28;20042;-81
2023/06/23 06:50:45;;;;;;;23.67;21.17;;;;;;;21.46;100.00;96522.13;5101730;28;20051;-82
2023/06/23 06:53:11;;;;;;;25.17;21.02;;;;;;;21.51;100.00;96531.16;5108060;28;20024;-79
2023/06/23 06:55:38;;;;;;;25.40;21.83;;;;;;;21.22;100.00;96537.94;5107546;27;20075;-80
2023/06/23 06:58:04;;;;;;;26.60;22.08;;;;;;;21.59;100.00;96538.06;5114529;27;20500;-80
2023/06/23 07:00:30;;;;;;;24.50;21.85;;;;;;;21.77;100.00;96546.13;5096095;28;20051;-81
2023/06/23 07:02:58;;;;;;;25.92;23.20;;;;;;;21.42;100.00;96549.31;5110553;28;20019;-80
2023/06/23 07:05:23;;;;;;;27.05;23.70;;;;;;;21.28;100.00;96555.81;5102964;27;20024;-80
2023/06/23 07:07:49;;;;;;;28.25;24.40;;;;;;;21.47;100.00;96551.34;5111632;28;20063;-80
2023/06/23 07:10:15;;;;;;;27.05;23.38;;;;;;;21.46;100.00;96556.91;5098828;28;20354;-80
2023/06/23 07:12:40;;;;;;;31.40;25.67;;;;;;;21.53;100.00;96571.03;5089150;28;20084;-83
2023/06/23 07:15:09;;;;;;;29.10;25.30;;;;;;;21.48;100.00;96565.56;5078446;28;20030;-81
2023/06/23 07:17:34;;;;;;;27.70;24.40;;;;;;;21.29;100.00;96576.16;5087957;28;20377;-81
2023/06/23 07:20:00;;;;;;;28.27;25.15;;;;;;;21.69;100.00;96578.50;5106721;27;20026;-81
2023/06/23 07:22:26;;;;;;;28.10;24.98;;;;;;;21.79;100.00;96575.34;5113683;27;20542;-81
2023/06/23 07:24:51;;;;;;;27.40;23.63;;;;;;;21.85;100.00;96580.63;5079496;28;20420;-81
2023/06/23 07:27:18;;;;;;;28.08;23.02;;;;;;;21.86;100.00;96576.91;5116152;28;20432;-81
2023/06/23 07:29:44;;;;;;;27.95;23.35;;;;;;;21.78;100.00;96571.03;5107172;28;20019;-81
2023/06/23 07:32:14;;;;;;;28.23;22.95;;;;;;;22.23;100.00;96587.66;5115982;28;20027;-81
2023/06/23 07:34:40;;;;;;;26.55;23.55;;;;;;;22.31;100.00;96584.69;5129636;28;20509;-81
2023/06/23 07:37:08;;;;;;;29.08;24.25;;;;;;;21.86;100.00;96589.47;5090088;28;20415;-81
2023/06/23 07:39:35;;;;;;;26.00;22.48;;;;;;;21.96;100.00;96597.81;5097864;28;20102;-81
2023/06/23 07:42:01;;;;;;;27.77;23.13;;;;;;;21.51;100.00;96606.06;5105651;28;20090;-81
2023/06/23 07:44:26;;;;;;;27.48;24.48;;;;;;;22.18;100.00;96603.59;5080141;28;20653;-81
2023/06/23 07:46:53;;;;;;;28.23;23.05;;;;;;;21.82;100.00;96605.16;5081863;28;20023;-81
2023/06/23 07:49:18;;;;;;;27.77;24.05;;;;;;;21.86;100.00;96609.06;5097857;28;20038;-81
2023/06/23 07:51:49;;;;;;;27.50;24.25;;;;;;;21.85;100.00;96618.09;5094585;28;20053;-81
2023/06/23 07:54:15;;;;;;;28.45;23.27;;;;;;;22.05;100.00;96614.41;5097876;28;20055;-81
2023/06/23 07:56:41;;;;;;;25.58;22.88;;;;;;;22.33;100.00;96613.91;5077343;28;20061;-81
2023/06/23 07:59:06;;;;;;;24.85;22.15;;;;;;;22.28;100.00;96611.09;5074989;28;20047;-81
2023/06/23 08:01:32;;;;;;;25.17;21.23;;;;;;;22.81;100.00;96619.28;5102368;28;20020;-80
2023/06/23 08:03:58;;;;;;;23.27;20.42;;;;;;;22.28;100.00;96622.63;5103512;28;20019;-82
2023/06/23 08:06:32;;;;;;;24.65;21.58;;;;;;;22.61;100.00;96624.09;5088080;28;20450;-82
2023/06/23 08:08:58;;;;;;;23.38;20.35;;;;;;;23.11;100.00;96634.59;5094069;28;20019;-81
2023/06/23 08:11:24;;;;;;;25.13;21.67;;;;;;;22.56;100.00;96634.66;5096553;28;20077;-81
2023/06/23 08:13:50;;;;;;;26.35;21.15;;;;;;;22.66;100.00;96631.44;5098722;28;20023;-82
2023/06/23 08:16:16;;;;;;;24.08;19.88;;;;;;;22.46;100.00;96629.84;5095457;28;20035;-82
2023/06/23 08:18:42;;;;;;;21.67;19.38;;;;;;;23.18;100.00;96632.63;5105488;28;20024;-82
2023/06/23 08:21:09;;;;;;;22.77;19.63;;;;;;;23.16;100.00;96637.41;5100781;28;20373;-82
2023/06/23 08:23:35;;;;;;;25.45;17.98;;;;;;;23.45;100.00;96633.03;5080374;28;20058;-82
2023/06/23 08:26:01;;;;;;;20.38;18.17;;;;;;;24.58;100.00;96625.69;5097733;28;20027;-82
2023/06/23 08:28:28;;;;;;;20.65;16.98;;;;;;;25.08;100.00;96635.78;5085407;28;20460;-81
2023/06/23 08:31:01;;;;;;;22.45;16.75;;;;;;;24.54;100.00;96643.31;5107480;27;20588;-82
2023/06/23 08:33:26;;;;;;;18.80;14.98;;;;;;;24.01;100.00;96641.63;5091881;27;20029;-82
2023/06/23 08:35:52;;;;;;;18.33;15.85;;;;;;;24.23;100.00;96655.28;5107524;27;20023;-82
2023/06/23 08:38:18;;;;;;;19.63;14.60;;;;;;;23.74;100.00;96644.78;5102498;28;20026;-82
2023/06/23 08:40:45;;;;;;;16.83;14.40;;;;;;;23.89;100.00;96648.88;5112835;28;20435;-82
2023/06/23 08:43:11;;;;;;;19.75;16.00;;;;;;;24.16;100.00;96650.03;5089561;27;20019;-82
2023/06/23 08:45:41;;;;;;;18.88;16.88;;;;;;;24.58;100.00;96646.34;5096591;28;20118;-82
2023/06/23 08:48:09;;;;;;;18.02;15.63;;;;;;;25.27;100.00;96641.78;5091833;28;20024;-82
2023/06/23 08:50:36;;;;;;;19.75;14.75;;;;;;;25.29;100.00;96641.56;5100551;27;20080;-82
2023/06/23 08:53:06;;;;;;;17.92;14.95;;;;;;;26.39;100.00;96640.03;5098871;28;20026;-82
2023/06/23 08:55:34;;;;;;;16.55;13.55;;;;;;;26.23;100.00;96638.19;5105047;28;20023;-82
2023/06/23 08:58:03;;;;;;;18.10;14.63;;;;;;;26.40;100.00;96641.66;5109741;28;20026;-82
2023/06/23 09:00:29;;;;;;;16.67;14.30;;;;;;;26.01;100.00;96644.34;5083517;27;20046;-82
2023/06/23 09:02:56;;;;;;;17.27;13.80;;;;;;;27.65;100.00;96646.25;5099261;28;20067;-82
2023/06/23 09:05:21;;;;;;;18.80;14.55;;;;;;;27.68;100.00;96640.34;5101783;28;20019;-82
2023/06/23 09:07:48;;;;;;;15.73;13.65;;;;;;;27.63;100.00;96640.28;5104472;28;20020;-82
2023/06/23 09:10:13;;;;;;;16.30;13.85;;;;;;;28.08;100.00;96644.44;5099806;28;20012;-82
2023/06/23 09:13:05;;;;;;;18.63;14.95;;;;;;;27.02;100.00;96640.50;5098472;28;20556;-82
2023/06/23 09:15:31;;;;;;;17.30;15.50;;;;;;;26.25;100.00;96644.13;5086476;27;20075;-83
2023/06/23 09:17:58;;;;;;;18.48;13.40;;;;;;;26.21;100.00;96643.00;5096393;28;20027;-82
2023/06/23 09:20:23;;;;;;;17.10;15.18;;;;;;;25.83;100.00;96639.22;5096534;28;20022;-82
2023/06/23 09:22:50;;;;;;;16.10;13.43;;;;;;;25.72;100.00;96643.63;5104820;27;20032;-81
2023/06/23 09:25:56;;;;;;;15.15;13.48;;;;;;;25.26;100.00;96658.19;5095502;27;20027;-82
2023/06/23 09:28:34;;;;;;;16.67;13.23;;;;;;;24.96;100.00;96661.09;5084992;28;20047;-82
2023/06/23 09:31:14;;;;;;;14.85;12.15;;;;;;;26.72;100.00;96640.97;5089346;28;20040;-82
2023/06/23 09:33:51;;;;;;;13.38;10.50;;;;;;;25.96;100.00;96646.97;5107205;27;20030;-82
2023/06/23 09:36:17;;;;;;;12.70;11.07;;;;;;;26.00;100.00;96655.38;5083381;28;20111;-81
2023/06/23 09:38:43;;;;;;;19.15;11.18;;;;;;;25.71;100.00;96657.31;5106926;27;20106;-81
2023/06/23 09:41:10;;;;;;;15.38;12.43;;;;;;;24.53;100.00;96659.69;5121545;27;20057;-82
2023/06/23 09:43:44;;;;;;;14.45;12.23;;;;;;;24.56;100.00;96669.97;5109628;28;20028;-82
2023/06/23 09:46:12;;;;;;;15.02;11.18;;;;;;;24.43;100.00;96668.38;5109081;28;20101;-82
2023/06/23 09:48:51;;;;;;;14.07;11.27;;;;;;;25.47;100.00;96670.13;5113885;28;20039;-81
2023/06/23 09:51:20;;;;;;;12.88;10.73;;;;;;;25.52;100.00;96678.28;5107529;27;20384;-81
2023/06/23 09:53:47;;;;;;;13.77;11.48;;;;;;;26.40;100.00;96662.41;5112852;27;20473;-82
2023/06/23 09:56:21;;;;;;;12.98;10.18;;;;;;;27.25;100.00;96659.13;5095274;28;20023;-82
2023/06/23 09:58:48;;;;;;;13.48;9.77;;;;;;;28.39;100.00;96659.78;5089016;28;20028;-82
2023/06/23 10:01:17;;;;;;;13.00;11.23;;;;;;;28.62;100.00;96663.97;5078921;28;20020;-82
2023/06/23 10:03:52;;;;;;;15.38;11.40;;;;;;;27.69;100.00;96671.69;5081392;27;20646;-82
2023/06/23 10:06:38;;;;;;;14.30;10.63;;;;;;;26.33;100.00;96676.06;5117318;27;20354;-83
2023/06/23 10:09:10;;;;;;;10.63;9.38;;;;;;;26.45;100.00;96668.66;5109996;27;20102;-82
2023/06/23 10:11:40;;;;;;;11.38;9.27;;;;;;;25.93;100.00;96669.03;5101561;27;20019;-81
2023/06/23 10:14:10;;;;;;;13.45;6.70;;;;;;;26.68;100.00;96664.94;5102881;27;20033;-81
2023/06/23 10:16:41;;;;;;;8.93;6.13;;;;;;;27.11;100.00;96665.19;5104516;28;20028;-81
2023/06/23 10:19:07;;;;;;;8.05;5.43;;;;;;;27.16;99.97;96673.34;5077756;28;20053;-82
2023/06/23 10:21:33;;;;;;;9.60;6.45;;;;;;;27.14;100.00;96668.22;5099488;27;20369;-81
2023/06/23 10:24:12;;;;;;;8.00;5.32;;;;;;;27.62;97.66;96673.78;5087259;28;20030;-82
2023/06/23 10:26:40;;;;;;;8.63;6.00;;;;;;;27.88;98.21;96672.16;5092846;28;20039;-81
2023/06/23 10:29:11;;;;;;;10.13;5.68;;;;;;;27.03;100.00;96677.25;5097462;28;20023;-82
2023/06/23 10:31:55;;;;;;;8.18;5.55;;;;;;;28.04;94.41;96675.78;5112698;28;20023;-81
2023/06/23 10:34:22;;;;;;;9.52;5.35;;;;;;;28.57;92.22;96668.53;5095754;28;20085;-84
2023/06/23 10:36:52;;;;;;;8.90;5.60;;;;;;;27.46;96.27;96676.38;5095269;28;20068;-82
2023/06/23 10:39:20;;;;;;;9.98;5.63;;;;;;;27.22;98.94;96675.03;5100594;28;20019;-82
2023/06/23 10:41:47;;;;;;;8.95;5.45;;;;;;;26.70;100.00;96689.00;5100426;27;20011;-83
2023/06/23 10:44:15;;;;;;;6.95;5.10;;;;;;;26.04;100.00;96688.84;5092381;28;20114;-82
2023/06/23 10:46:40;;;;;;;10.82;5.70;;;;;;;26.04;100.00;96695.06;5107960;28;20050;-85
2023/06/23 10:49:10;;;;;;;6.97;4.78;;;;;;;27.23;94.66;96679.34;5080336;28;20508;-82
2023/06/23 10:51:37;;;;;;;8.23;5.28;;;;;;;27.60;92.74;96675.94;5101497;28;20020;-82
2023/06/23 10:54:09;;;;;;;8.02;5.18;;;;;;;28.55;85.43;96665.28;5094811;28;20027;-82
2023/06/23 10:56:37;;;;;;;7.22;5.50;;;;;;;27.49;90.89;96675.03;5083364;28;20071;-83
2023/06/23 10:59:20;;;;;;;8.23;5.13;;;;;;;28.68;87.56;96678.34;5124123;27;20098;-82
2023/06/23 11:02:01;;;;;;;7.03;5.18;;;;;;;28.43;87.40;96671.72;5092568;27;20023;-82
2023/06/23 11:04:31;;;;;;;8.95;5.47;;;;;;;27.38;93.38;96682.22;5080233;27;20046;-82
2023/06/23 11:07:15;;;;;;;7.30;5.00;;;;;;;27.11;94.90;96692.97;5099514;28;20538;-82
2023/06/23 11:10:04;;;;;;;7.95;5.30;;;;;;;27.79;90.13;96695.31;5084657;27;20027;-83
2023/06/23 11:12:33;;;;;;;8.40;5.40;;;;;;;27.56;89.68;96691.03;5116312;27;20019;-83
2023/06/23 11:15:04;;;;;;;8.00;5.20;;;;;;;28.23;83.65;96687.00;5123782;27;20376;-83
2023/06/23 11:17:38;;;;;;;8.32;5.10;;;;;;;28.78;82.31;96683.81;5080905;27;20020;-82
2023/06/23 11:20:04;;;;;;;7.28;4.53;;;;;;;28.91;81.28;96679.78;5113956;27;20028;-82
2023/06/23 11:22:29;;;;;;;6.93;4.70;;;;;;;28.96;80.59;96689.81;5080206;28;20480;-82
2023/06/23 11:24:55;;;;;;;7.63;4.60;;;;;;;29.35;79.75;96695.66;5102732;28;20019;-82
2023/06/23 11:27:28;;;;;;;10.10;4.93;;;;;;;28.65;73.43;96687.00;5089041;28;20020;-82
2023/06/23 11:30:21;;;;;;;7.15;4.10;;;;;;;28.83;71.46;96694.63;5097216;28;20531;-82
2023/06/23 11:33:40;;;;;;;9.00;5.18;;;;;;;28.73;74.79;96708.13;5086427;28;20031;-82
2023/06/23 11:36:12;;;;;;;8.55;5.00;;;;;;;28.32;74.78;96701.66;5060380;28;20051;-82
2023/06/23 11:38:40;;;;;;;9.02;4.63;;;;;;;27.77;77.91;96709.09;5092031;28;20073;-82